Darstellungsparameter: Aktuell verwendete Einstellungen:
Skalierung der Graphiken ... ?
xyx+y,   Skalierungsfaktor:      Skalierung: Modus: x, Faktor: 1
Darstellungszeitraum ... ?
Vom - - bis: - -   Zeitraum: 03.05.2010 - 09.05.2010
Min/Max/Avg-Anzeige ... ?
Zeige MMA aktuell
Zeige MMA Monat
Zeige MMA alles
Zeige --A aktuell
Zeige --A Monat
Zeige --A alles
Keine MMA-Anzeige
MMA:
Average (ber die Originaldaten)
MMA-Basis: 03.05.2010 - 09.05.2010
Quicknavigation für Darstellung... ?
Tage:      1T, 2T, 3T, 5T -1T -2T -3T -5T +1T +2T +3T +5T
Wochen: 1W, 2W, 3W -1W -2W -3W +1W +2W +3W
Monate: 1M, 3M, 6M -1M -3M -6M +1M +3M +6M
Jahre:    1J, 3J, 5J, 10J -1J -3J -5J -10J +1J +3J +5J +10J
Nutze für die Darstellung ... ?
Originaldaten oder Mittelwerte auf ...
Stundenbasis Tagesbasis Wochenbasis
Monatsbasis Jahresbasis      Datenbasis: Original-Daten
Darstellen als:
Statistik (Auto) Statistik J:M      Darstellung:
Zur Graphik,    zurück zur Übersicht aller Sensoren.
 
Tabellarische Datenbersicht: ?
 
Sensor: Nr:Datum:Temp:Abs-Feuchte:Windchill:Wind:
Aussen-T/F 1 03-05-2010 00:07:04 10.1 C 7.28 g/m*3 10.1 C 0 km/h
2 03-05-2010 00:19:04 10 C 7.33 g/m*3 10 C 0 km/h
3 03-05-2010 00:31:04 9.9 C 7.38 g/m*3 9.9 C 0 km/h
4 03-05-2010 00:43:04 9.5 C 7.19 g/m*3 9.5 C 0 km/h
5 03-05-2010 00:55:04 9.3 C 7.19 g/m*3 9.3 C 0 km/h
6 03-05-2010 01:07:04 9.2 C 7.14 g/m*3 9.2 C 0 km/h
7 03-05-2010 01:19:04 9.1 C 7.1 g/m*3 9.1 C 0 km/h
8 03-05-2010 01:31:04 9.1 C 7.1 g/m*3 9.1 C 0 km/h
9 03-05-2010 01:43:04 8.7 C 7.09 g/m*3 8.7 C 0 km/h
10 03-05-2010 01:55:04 8.7 C 7.09 g/m*3 8.7 C 0 km/h
11 03-05-2010 02:07:04 8.5 C 7 g/m*3 8.5 C 0 km/h
12 03-05-2010 02:19:05 8.1 C 6.82 g/m*3 8.1 C 0 km/h
13 03-05-2010 02:31:05 8 C 6.78 g/m*3 8 C 0 km/h
14 03-05-2010 02:43:05 8 C 6.78 g/m*3 8 C 0 km/h
15 03-05-2010 02:55:05 8 C 6.78 g/m*3 8 C 0 km/h
16 03-05-2010 03:07:05 8.2 C 7.03 g/m*3 8.2 C 0 km/h
17 03-05-2010 03:19:05 8.2 C 7.03 g/m*3 8.2 C 0 km/h
18 03-05-2010 03:31:05 8 C 6.94 g/m*3 8 C 0 km/h
19 03-05-2010 03:43:05 8 C 7.03 g/m*3 8 C 0 km/h
20 03-05-2010 03:55:05 8.1 C 7.07 g/m*3 8.1 C 0 km/h
21 03-05-2010 04:07:05 8.2 C 7.12 g/m*3 8.2 C 0 km/h
22 03-05-2010 04:19:05 8.3 C 7.16 g/m*3 8.3 C 0 km/h
23 03-05-2010 04:31:05 8.4 C 7.21 g/m*3 8.4 C 0 km/h
24 03-05-2010 04:43:05 8.6 C 7.22 g/m*3 8.6 C 0 km/h
25 03-05-2010 04:55:05 8.6 C 7.22 g/m*3 8.6 C 0 km/h
Sensor: Nr:Datum:Temp:Abs-Feuchte:Windchill:Wind:
Aussen-T/F 26 03-05-2010 05:07:05 8.6 C 7.13 g/m*3 8.6 C 0 km/h
27 03-05-2010 05:19:05 8.6 C 7.13 g/m*3 8.6 C 0 km/h
28 03-05-2010 05:31:05 8.6 C 7.13 g/m*3 8.6 C 0 km/h
29 03-05-2010 05:43:05 8.7 C 7.18 g/m*3 8.7 C 0 km/h
30 03-05-2010 05:55:05 8.5 C 7.09 g/m*3 8.5 C 0 km/h
31 03-05-2010 06:07:05 8.6 C 7.13 g/m*3 8.6 C 0 km/h
32 03-05-2010 06:19:05 8.7 C 7.18 g/m*3 8.7 C 0 km/h
33 03-05-2010 06:31:05 8.6 C 7.13 g/m*3 8.6 C 0 km/h
34 03-05-2010 06:43:05 8.6 C 7.13 g/m*3 8.6 C 0 km/h
35 03-05-2010 06:55:02 8.5 C 7.09 g/m*3 8.5 C 0 km/h
36 03-05-2010 07:07:03 8.2 C 6.95 g/m*3 8.2 C 0 km/h
37 03-05-2010 07:19:02 8.3 C 7 g/m*3 8.3 C 0 km/h
38 03-05-2010 07:31:02 8.2 C 7.03 g/m*3 8.2 C 0 km/h
39 03-05-2010 07:43:02 8.5 C 7.17 g/m*3 8.5 C 0 km/h
40 03-05-2010 07:55:01 8.8 C 7.4 g/m*3 8.8 C 0 km/h
41 03-05-2010 08:07:02 9.1 C 7.28 g/m*3 9.1 C 0 km/h
42 03-05-2010 08:19:02 9.6 C 7.24 g/m*3 9.6 C 0 km/h
43 03-05-2010 08:31:02 10 C 6.86 g/m*3 10 C 0 km/h
44 03-05-2010 08:43:02 9.9 C 6.72 g/m*3 9.9 C 0 km/h
45 03-05-2010 08:55:02 10 C 6.67 g/m*3 10 C 0 km/h
46 03-05-2010 09:07:02 10.1 C 6.62 g/m*3 10.1 C 0 km/h
47 03-05-2010 09:19:02 10.6 C 6.83 g/m*3 10.6 C 0 km/h
48 03-05-2010 09:31:02 10.5 C 6.69 g/m*3 10.5 C 0 km/h
49 03-05-2010 09:43:02 10.8 C 6.82 g/m*3 10.8 C 0 km/h
50 03-05-2010 09:55:01 10.8 C 6.72 g/m*3 10.8 C 0 km/h
Sensor: Nr:Datum:Temp:Abs-Feuchte:Windchill:Wind:
Aussen-T/F 51 03-05-2010 10:07:02 10.8 C 6.72 g/m*3 10.8 C 0 km/h
52 03-05-2010 10:19:01 11 C 6.71 g/m*3 11 C 0 km/h
53 03-05-2010 10:31:01 10.9 C 6.76 g/m*3 10.9 C 0 km/h
54 03-05-2010 10:43:01 10.8 C 6.72 g/m*3 10.8 C 0 km/h
55 03-05-2010 10:55:01 11.5 C 6.92 g/m*3 11.5 C 0 km/h
56 03-05-2010 11:07:02 12.1 C 6.65 g/m*3 12.1 C 0 km/h
57 03-05-2010 11:19:01 11.9 C 6.67 g/m*3 11.9 C 0 km/h
58 03-05-2010 11:31:01 12.1 C 6.65 g/m*3 12.1 C 0 km/h
59 03-05-2010 11:43:01 14.1 C 6.8 g/m*3 14.1 C 0 km/h
60 03-05-2010 11:55:01 14.5 C 6.72 g/m*3 14.5 C 0 km/h
61 03-05-2010 12:07:01 14.7 C 6.55 g/m*3 14.7 C 0 km/h
62 03-05-2010 12:19:02 15.7 C 6.42 g/m*3 15.7 C 0 km/h
63 03-05-2010 12:31:01 15.2 C 6.23 g/m*3 15.2 C 0 km/h
64 03-05-2010 12:43:01 14.5 C 6.09 g/m*3 14.5 C 0 km/h
65 03-05-2010 12:55:02 13.6 C 6.94 g/m*3 13.6 C 0 km/h
66 03-05-2010 13:07:01 14.2 C 6.84 g/m*3 14.2 C 0 km/h
67 03-05-2010 13:19:01 14.9 C 6.88 g/m*3 14.9 C 0 km/h
68 03-05-2010 13:31:01 15.7 C 6.42 g/m*3 15.7 C 0 km/h
69 03-05-2010 13:43:01 16.7 C 6.25 g/m*3 16.7 C 0 km/h
70 03-05-2010 13:55:02 11.3 C 5.71 g/m*3 11.3 C 0 km/h
71 03-05-2010 14:07:02 11.2 C 6.28 g/m*3 11.2 C 0 km/h
72 03-05-2010 14:19:02 10.1 C 6.43 g/m*3 10.1 C 0 km/h
73 03-05-2010 14:31:01 9.1 C 6.83 g/m*3 9.1 C 0 km/h
74 03-05-2010 14:43:01 9 C 7.23 g/m*3 9 C 0 km/h
75 03-05-2010 14:55:02 8.4 C 7.13 g/m*3 8.4 C 0 km/h
Sensor: Nr:Datum:Temp:Abs-Feuchte:Windchill:Wind:
Aussen-T/F 76 03-05-2010 15:07:01 8.8 C 7.49 g/m*3 8.8 C 0 km/h
77 03-05-2010 15:19:02 9 C 7.67 g/m*3 9 C 0 km/h
78 03-05-2010 15:31:02 9.6 C 8.06 g/m*3 9.6 C 0 km/h
79 03-05-2010 15:43:02 10.2 C 8.18 g/m*3 10.2 C 0 km/h
80 03-05-2010 15:55:02 11.1 C 8.56 g/m*3 11.1 C 0 km/h
81 03-05-2010 16:07:02 11.1 C 7.86 g/m*3 11.1 C 0 km/h
82 03-05-2010 16:19:02 11 C 7.51 g/m*3 11 C 0 km/h
83 03-05-2010 16:31:02 10.2 C 7.23 g/m*3 10.2 C 0 km/h
84 03-05-2010 16:43:02 10.1 C 7.28 g/m*3 10.1 C 0 km/h
85 03-05-2010 16:55:01 10.5 C 7.37 g/m*3 10.5 C 0 km/h
86 03-05-2010 17:07:02 10.1 C 6.9 g/m*3 10.1 C 0 km/h
87 03-05-2010 17:19:01 10.4 C 7.42 g/m*3 10.4 C 0 km/h
88 03-05-2010 17:31:02 10.7 C 7.46 g/m*3 10.7 C 0 km/h
89 03-05-2010 17:43:03 11.4 C 7.49 g/m*3 11.4 C 0 km/h
90 03-05-2010 17:55:02 11.5 C 7.02 g/m*3 11.5 C 0 km/h
91 03-05-2010 18:07:02 11.3 C 7.14 g/m*3 11.3 C 0 km/h
92 03-05-2010 18:19:01 10.7 C 6.58 g/m*3 10.7 C 0 km/h
93 03-05-2010 18:31:02 10.9 C 6.96 g/m*3 10.9 C 0 km/h
94 03-05-2010 18:43:02 11 C 7.01 g/m*3 11 C 0 km/h
95 03-05-2010 18:55:02 10.9 C 6.66 g/m*3 10.9 C 0 km/h
96 03-05-2010 19:07:02 10.8 C 6.62 g/m*3 10.8 C 0 km/h
97 03-05-2010 19:19:01 10.7 C 6.58 g/m*3 10.7 C 0 km/h
98 03-05-2010 19:31:02 10.4 C 6.65 g/m*3 10.4 C 0 km/h
99 03-05-2010 19:43:02 10.3 C 6.42 g/m*3 10.3 C 0 km/h
100 03-05-2010 19:55:02 10.3 C 6.42 g/m*3 10.3 C 0 km/h
Sensor: Nr:Datum:Temp:Abs-Feuchte:Windchill:Wind:
Aussen-T/F 101 03-05-2010 20:07:02 10.1 C 6.15 g/m*3 10.1 C 0 km/h
102 03-05-2010 20:19:02 10 C 6.01 g/m*3 10 C 0 km/h
103 03-05-2010 20:31:02 9.8 C 6.12 g/m*3 9.8 C 0 km/h
104 03-05-2010 20:43:02 9.5 C 5.92 g/m*3 9.5 C 0 km/h
105 03-05-2010 20:55:01 9.3 C 6.11 g/m*3 9.3 C 0 km/h
106 03-05-2010 21:07:02 9.2 C 6.07 g/m*3 9.2 C 0 km/h
107 03-05-2010 21:19:02 9.2 C 6.25 g/m*3 9.2 C 0 km/h
108 03-05-2010 21:31:02 9.2 C 6.25 g/m*3 9.2 C 0 km/h
109 03-05-2010 21:43:02 8.9 C 6.39 g/m*3 8.9 C 0 km/h
110 03-05-2010 21:55:02 8.9 C 6.31 g/m*3 8.9 C 0 km/h
111 03-05-2010 22:07:02 8.8 C 6.44 g/m*3 8.8 C 0 km/h
112 03-05-2010 22:20:05 8.7 C 6.49 g/m*3 8.7 C 0 km/h
113 03-05-2010 22:32:05 8.5 C 6.49 g/m*3 8.5 C 0 km/h
114 03-05-2010 22:44:05 8.5 C 6.57 g/m*3 8.5 C 0 km/h
115 03-05-2010 22:56:05 8.4 C 6.45 g/m*3 8.4 C 0 km/h
116 03-05-2010 23:08:05 8.4 C 6.45 g/m*3 8.4 C 0 km/h
117 03-05-2010 23:20:05 8.4 C 6.53 g/m*3 8.4 C 0 km/h
118 03-05-2010 23:32:05 8.4 C 6.53 g/m*3 8.4 C 0 km/h
119 03-05-2010 23:44:05 8.3 C 6.49 g/m*3 8.3 C 0 km/h
120 03-05-2010 23:56:05 8.3 C 6.49 g/m*3 8.3 C 0 km/h
121 04-05-2010 00:08:05 8 C 6.37 g/m*3 8 C 0 km/h
122 04-05-2010 00:20:05 7.5 C 6.24 g/m*3 7.5 C 0 km/h
123 04-05-2010 00:32:05 7.2 C 6.28 g/m*3 7.2 C 0 km/h
124 04-05-2010 00:44:05 7.4 C 6.44 g/m*3 7.4 C 0 km/h
125 04-05-2010 00:56:05 7.8 C 6.69 g/m*3 7.8 C 0 km/h
Sensor: Nr:Datum:Temp:Abs-Feuchte:Windchill:Wind:
Aussen-T/F 126 04-05-2010 01:08:05 8 C 6.53 g/m*3 8 C 0 km/h
127 04-05-2010 01:20:06 8.1 C 6.49 g/m*3 8.1 C 0 km/h
128 04-05-2010 01:32:06 8.2 C 6.45 g/m*3 8.2 C 0 km/h
129 04-05-2010 01:44:06 8.3 C 6.49 g/m*3 8.3 C 0 km/h
130 04-05-2010 01:56:06 8.4 C 6.53 g/m*3 8.4 C 0 km/h
131 04-05-2010 02:08:06 8.4 C 6.53 g/m*3 8.4 C 0 km/h
132 04-05-2010 02:20:06 8.4 C 6.53 g/m*3 8.4 C 0 km/h
133 04-05-2010 02:32:06 8.4 C 6.53 g/m*3 8.4 C 0 km/h
134 04-05-2010 02:44:06 8.3 C 6.49 g/m*3 8.3 C 0 km/h
135 04-05-2010 02:56:06 8.4 C 6.62 g/m*3 8.4 C 0 km/h
136 04-05-2010 03:08:06 8.4 C 6.62 g/m*3 8.4 C 0 km/h
137 04-05-2010 03:20:06 8.4 C 6.62 g/m*3 8.4 C 0 km/h
138 04-05-2010 03:32:06 8.3 C 6.57 g/m*3 8.3 C 0 km/h
139 04-05-2010 03:44:06 8.2 C 6.62 g/m*3 8.2 C 0 km/h
140 04-05-2010 03:56:06 8.1 C 6.66 g/m*3 8.1 C 0 km/h
141 04-05-2010 04:08:06 8 C 6.61 g/m*3 8 C 0 km/h
142 04-05-2010 04:20:06 7.9 C 6.74 g/m*3 7.9 C 0 km/h
143 04-05-2010 04:32:06 7.9 C 6.82 g/m*3 7.9 C 0 km/h
144 04-05-2010 04:44:06 7.9 C 6.82 g/m*3 7.9 C 0 km/h
145 04-05-2010 04:56:06 7.9 C 6.82 g/m*3 7.9 C 0 km/h
146 04-05-2010 05:08:06 8 C 6.78 g/m*3 8 C 0 km/h
147 04-05-2010 05:20:06 8.1 C 6.82 g/m*3 8.1 C 0 km/h
148 04-05-2010 05:32:07 8.2 C 6.87 g/m*3 8.2 C 0 km/h
149 04-05-2010 05:44:07 8.2 C 6.87 g/m*3 8.2 C 0 km/h
150 04-05-2010 05:56:07 8.2 C 6.87 g/m*3 8.2 C 0 km/h
Sensor: Nr:Datum:Temp:Abs-Feuchte:Windchill:Wind:
Aussen-T/F 151 04-05-2010 06:08:07 8.1 C 6.82 g/m*3 8.1 C 0 km/h
152 04-05-2010 06:20:07 8.2 C 6.87 g/m*3 8.2 C 0 km/h
153 04-05-2010 06:32:07 8.2 C 6.87 g/m*3 8.2 C 0 km/h
154 04-05-2010 06:44:07 8.3 C 6.91 g/m*3 8.3 C 0 km/h
155 04-05-2010 06:56:02 8.4 C 6.96 g/m*3 8.4 C 0 km/h
156 04-05-2010 07:08:01 8.5 C 7 g/m*3 8.5 C 0 km/h
157 04-05-2010 07:20:02 8.6 C 6.96 g/m*3 8.6 C 0 km/h
158 04-05-2010 07:32:01 8.7 C 7.01 g/m*3 8.7 C 0 km/h
159 04-05-2010 07:44:01 8.7 C 6.92 g/m*3 8.7 C 0 km/h
160 04-05-2010 07:56:02 8.8 C 6.79 g/m*3 8.8 C 0 km/h
161 04-05-2010 08:08:01 9.2 C 6.61 g/m*3 9.2 C 0 km/h
162 04-05-2010 08:20:01 9 C 6.44 g/m*3 9 C 0 km/h
163 04-05-2010 08:32:02 9.1 C 6.48 g/m*3 9.1 C 0 km/h
164 04-05-2010 08:44:03 8.9 C 6.31 g/m*3 8.9 C 0 km/h
165 04-05-2010 08:56:02 8.9 C 6.31 g/m*3 8.9 C 0 km/h
166 04-05-2010 09:08:02 9.2 C 6.34 g/m*3 9.2 C 0 km/h
167 04-05-2010 09:20:01 9.1 C 6.21 g/m*3 9.1 C 0 km/h
168 04-05-2010 09:32:02 9.3 C 6.29 g/m*3 9.3 C 0 km/h
169 04-05-2010 09:44:02 9.3 C 6.2 g/m*3 9.3 C 0 km/h
170 04-05-2010 09:56:02 9.5 C 6.19 g/m*3 9.5 C 0 km/h
171 04-05-2010 10:08:02 9.6 C 6.14 g/m*3 9.6 C 0 km/h
172 04-05-2010 10:20:01 9.8 C 5.85 g/m*3 9.8 C 0 km/h
173 04-05-2010 10:32:02 9.8 C 5.85 g/m*3 9.8 C 0 km/h
174 04-05-2010 10:44:02 9.9 C 5.7 g/m*3 9.9 C 0 km/h
175 04-05-2010 10:56:01 10 C 5.54 g/m*3 10 C 0 km/h
Sensor: Nr:Datum:Temp:Abs-Feuchte:Windchill:Wind:
Aussen-T/F 176 04-05-2010 11:08:02 10.2 C 5.52 g/m*3 10.2 C 0 km/h
177 04-05-2010 11:20:02 10.5 C 5.24 g/m*3 10.5 C 0 km/h
178 04-05-2010 11:32:02 10.7 C 5.21 g/m*3 10.7 C 0 km/h
179 04-05-2010 11:44:02 11.1 C 5.04 g/m*3 11.1 C 0 km/h
180 04-05-2010 11:56:02 11.3 C 5 g/m*3 11.3 C 0 km/h
181 04-05-2010 12:08:02 10.8 C 4.94 g/m*3 10.8 C 0 km/h
182 04-05-2010 12:20:02 10.5 C 4.85 g/m*3 10.5 C 0 km/h
183 04-05-2010 12:32:01 10.6 C 4.78 g/m*3 10.6 C 0 km/h
184 04-05-2010 12:44:01 11.6 C 4.89 g/m*3 11.6 C 0 km/h
185 04-05-2010 12:56:02 12 C 4.69 g/m*3 12 C 0 km/h
186 04-05-2010 13:08:01 12.2 C 4.64 g/m*3 12.2 C 0 km/h
187 04-05-2010 13:20:02 11.7 C 4.71 g/m*3 11.7 C 0 km/h
188 04-05-2010 13:32:01 11.8 C 4.53 g/m*3 11.8 C 0 km/h
189 04-05-2010 13:44:01 12 C 4.48 g/m*3 12 C 0 km/h
190 04-05-2010 13:56:02 12.2 C 4.53 g/m*3 12.2 C 0 km/h
191 04-05-2010 14:08:02 12.1 C 4.5 g/m*3 12.1 C 0 km/h
192 04-05-2010 14:20:02 12.5 C 4.84 g/m*3 12.5 C 0 km/h
193 04-05-2010 14:32:02 13.1 C 4.56 g/m*3 13.1 C 0 km/h
194 04-05-2010 14:44:02 13.4 C 4.65 g/m*3 13.4 C 0 km/h
195 04-05-2010 14:56:02 13.5 C 4.44 g/m*3 13.5 C 0 km/h
196 04-05-2010 15:08:02 13.5 C 4.56 g/m*3 13.5 C 0 km/h
197 04-05-2010 15:20:02 13.8 C 4.41 g/m*3 13.8 C 0 km/h
198 04-05-2010 15:32:02 13.5 C 4.44 g/m*3 13.5 C 0 km/h
199 04-05-2010 15:44:02 13.5 C 4.56 g/m*3 13.5 C 0 km/h
200 04-05-2010 15:56:02 12.9 C 4.51 g/m*3 12.9 C 0 km/h
Sensor: Nr:Datum:Temp:Abs-Feuchte:Windchill:Wind:
Aussen-T/F 201 04-05-2010 16:08:02 12.5 C 4.51 g/m*3 12.5 C 0 km/h
202 04-05-2010 16:20:02 12.8 C 4.59 g/m*3 12.8 C 0 km/h
203 04-05-2010 16:32:02 12.5 C 4.4 g/m*3 12.5 C 0 km/h
204 04-05-2010 16:44:02 12.5 C 4.4 g/m*3 12.5 C 0 km/h
205 04-05-2010 16:56:01 12 C 4.26 g/m*3 12 C 0 km/h
206 04-05-2010 17:08:02 12 C 4.26 g/m*3 12 C 0 km/h
207 04-05-2010 17:20:01 11.4 C 4.31 g/m*3 11.4 C 0 km/h
208 04-05-2010 17:32:02 11.4 C 4.41 g/m*3 11.4 C 0 km/h
209 04-05-2010 17:44:02 11.5 C 4.34 g/m*3 11.5 C 0 km/h
210 04-05-2010 17:56:02 11.4 C 4.31 g/m*3 11.4 C 0 km/h
211 04-05-2010 18:08:02 11.5 C 4.23 g/m*3 11.5 C 0 km/h
212 04-05-2010 18:20:02 11.4 C 4.21 g/m*3 11.4 C 0 km/h
213 04-05-2010 18:32:02 11.2 C 4.16 g/m*3 11.2 C 0 km/h
214 04-05-2010 18:44:02 11.1 C 4.13 g/m*3 11.1 C 0 km/h
215 04-05-2010 18:56:02 11 C 4.3 g/m*3 11 C 0 km/h
216 04-05-2010 19:08:02 11 C 4.3 g/m*3 11 C 0 km/h
217 04-05-2010 19:20:02 12 C 4.16 g/m*3 12 C 0 km/h
218 04-05-2010 19:32:02 11.4 C 4 g/m*3 11.4 C 0 km/h
219 04-05-2010 19:44:02 11 C 4 g/m*3 11 C 0 km/h
220 04-05-2010 19:56:01 11 C 4.2 g/m*3 11 C 0 km/h
221 04-05-2010 20:08:02 10.7 C 4.22 g/m*3 10.7 C 0 km/h
222 04-05-2010 20:20:01 10.6 C 4.49 g/m*3 10.6 C 0 km/h
223 04-05-2010 20:32:01 10.1 C 4.35 g/m*3 10.1 C 0 km/h
224 04-05-2010 20:44:01 9.8 C 4.36 g/m*3 9.8 C 0 km/h
225 04-05-2010 20:56:01 9.4 C 4.34 g/m*3 9.4 C 0 km/h
Sensor: Nr:Datum:Temp:Abs-Feuchte:Windchill:Wind:
Aussen-T/F 226 04-05-2010 21:08:02 9.5 C 4.28 g/m*3 9.5 C 0 km/h
227 04-05-2010 21:20:01 9.6 C 4.31 g/m*3 9.6 C 0 km/h
228 04-05-2010 21:32:01 9.7 C 4.61 g/m*3 9.7 C 0 km/h
229 04-05-2010 21:44:01 9.5 C 4.64 g/m*3 9.5 C 0 km/h
230 04-05-2010 21:56:01 8.8 C 4.61 g/m*3 8.8 C 0 km/h
231 04-05-2010 22:09:04 8.2 C 4.35 g/m*3 8.2 C 0 km/h
232 04-05-2010 22:21:04 8.1 C 4.33 g/m*3 8.1 C 0 km/h
233 04-05-2010 22:33:05 7.8 C 4.24 g/m*3 7.8 C 0 km/h
234 04-05-2010 22:45:05 7.7 C 4.14 g/m*3 7.7 C 0 km/h
235 04-05-2010 22:57:05 7.5 C 4.16 g/m*3 7.5 C 0 km/h
236 04-05-2010 23:09:05 7.4 C 4.14 g/m*3 7.4 C 0 km/h
237 04-05-2010 23:21:05 7.4 C 4.14 g/m*3 7.4 C 0 km/h
238 04-05-2010 23:33:05 7.3 C 4.03 g/m*3 7.3 C 0 km/h
239 04-05-2010 23:45:05 7.3 C 4.03 g/m*3 7.3 C 0 km/h
240 04-05-2010 23:57:05 7 C 3.95 g/m*3 7 C 0 km/h
241 05-05-2010 00:09:05 6.8 C 4.05 g/m*3 6.8 C 0 km/h
242 05-05-2010 00:21:05 6.7 C 4.18 g/m*3 6.7 C 0 km/h
243 05-05-2010 00:33:05 6.3 C 4.22 g/m*3 6.3 C 0 km/h
244 05-05-2010 00:45:05 6 C 4.21 g/m*3 6 C 0 km/h
245 05-05-2010 00:57:05 5.8 C 4.37 g/m*3 5.8 C 0 km/h
246 05-05-2010 01:09:05 5.5 C 4.35 g/m*3 5.5 C 0 km/h
247 05-05-2010 01:21:05 5.3 C 4.44 g/m*3 5.3 C 0 km/h
248 05-05-2010 01:33:05 5.4 C 4.4 g/m*3 5.4 C 0 km/h
249 05-05-2010 01:45:05 5.6 C 4.31 g/m*3 5.6 C 0 km/h
250 05-05-2010 01:57:05 5.6 C 4.24 g/m*3 5.6 C 0 km/h
Sensor: Nr:Datum:Temp:Abs-Feuchte:Windchill:Wind:
Aussen-T/F 251 05-05-2010 02:09:05 5.7 C 4.13 g/m*3 5.7 C 0 km/h
252 05-05-2010 02:21:05 5.7 C 4.13 g/m*3 5.7 C 0 km/h
253 05-05-2010 02:33:05 5.6 C 4.17 g/m*3 5.6 C 0 km/h
254 05-05-2010 02:45:06 5.5 C 4.21 g/m*3 5.5 C 0 km/h
255 05-05-2010 02:57:06 5.2 C 4.2 g/m*3 5.2 C 0 km/h
256 05-05-2010 03:09:06 5.1 C 4.24 g/m*3 5.1 C 0 km/h
257 05-05-2010 03:21:06 4.8 C 4.22 g/m*3 4.8 C 0 km/h
258 05-05-2010 03:33:06 4.7 C 4.13 g/m*3 4.7 C 0 km/h
259 05-05-2010 03:45:06 4.6 C 4.1 g/m*3 4.6 C 0 km/h
260 05-05-2010 03:57:06 4.5 C 4.01 g/m*3 4.5 C 0 km/h
261 05-05-2010 04:09:06 4.3 C 3.96 g/m*3 4.3 C 0 km/h
262 05-05-2010 04:21:06 4 C 4.01 g/m*3 4 C 0 km/h
263 05-05-2010 04:33:06 3.8 C 4.08 g/m*3 3.8 C 0 km/h
264 05-05-2010 04:45:06 3.7 C 4.11 g/m*3 3.7 C 0 km/h
265 05-05-2010 04:57:06 3.7 C 4.05 g/m*3 3.7 C 0 km/h
266 05-05-2010 05:09:06 3.6 C 4.02 g/m*3 3.6 C 0 km/h
267 05-05-2010 05:21:06 3.6 C 3.96 g/m*3 3.6 C 0 km/h
268 05-05-2010 05:33:06 3.6 C 3.9 g/m*3 3.6 C 0 km/h
269 05-05-2010 05:45:06 3.4 C 3.79 g/m*3 3.4 C 0 km/h
270 05-05-2010 05:57:06 3.2 C 3.86 g/m*3 3.2 C 0 km/h
271 05-05-2010 06:09:06 3 C 3.86 g/m*3 3 C 0 km/h
272 05-05-2010 06:21:06 2.8 C 3.99 g/m*3 2.8 C 0 km/h
273 05-05-2010 06:33:03 2.6 C 3.99 g/m*3 2.6 C 0 km/h
274 05-05-2010 06:45:03 2.5 C 4.02 g/m*3 2.5 C 0 km/h
275 05-05-2010 06:57:03 2.5 C 4.08 g/m*3 2.5 C 0 km/h
Sensor: Nr:Datum:Temp:Abs-Feuchte:Windchill:Wind:
Aussen-T/F 276 05-05-2010 07:09:02 2.5 C 4.14 g/m*3 2.5 C 0 km/h
277 05-05-2010 07:21:03 2.7 C 4.25 g/m*3 2.7 C 0 km/h
278 05-05-2010 07:33:02 2.8 C 4.28 g/m*3 2.8 C 0 km/h
279 05-05-2010 07:45:02 3 C 4.28 g/m*3 3 C 0 km/h
280 05-05-2010 07:57:02 3.4 C 4.4 g/m*3 3.4 C 0 km/h
281 05-05-2010 08:09:02 3.8 C 4.45 g/m*3 3.8 C 0 km/h
282 05-05-2010 08:21:02 4.4 C 4.31 g/m*3 4.4 C 0 km/h
283 05-05-2010 08:33:02 4.6 C 4.17 g/m*3 4.6 C 0 km/h
284 05-05-2010 08:45:02 4.9 C 4.12 g/m*3 4.9 C 0 km/h
285 05-05-2010 08:57:02 5.3 C 4.02 g/m*3 5.3 C 0 km/h
286 05-05-2010 09:09:01 6 C 3.99 g/m*3 6 C 0 km/h
287 05-05-2010 09:21:02 6.6 C 3.85 g/m*3 6.6 C 0 km/h
288 05-05-2010 09:33:02 7.2 C 3.92 g/m*3 7.2 C 0 km/h
289 05-05-2010 09:45:02 7.5 C 3.76 g/m*3 7.5 C 0 km/h
290 05-05-2010 09:57:02 7.9 C 3.7 g/m*3 7.9 C 0 km/h
291 05-05-2010 10:09:02 8.1 C 3.58 g/m*3 8.1 C 0 km/h
292 05-05-2010 10:21:02 8.6 C 3.52 g/m*3 8.6 C 0 km/h
293 05-05-2010 10:33:02 9.5 C 3.37 g/m*3 9.5 C 0 km/h
294 05-05-2010 10:45:01 9.6 C 3.11 g/m*3 9.6 C 0 km/h
295 05-05-2010 10:57:01 10 C 2.91 g/m*3 10 C 0 km/h
296 05-05-2010 11:09:02 10.4 C 2.89 g/m*3 10.4 C 0 km/h
297 05-05-2010 11:21:01 10.7 C 2.75 g/m*3 10.7 C 0 km/h
298 05-05-2010 11:33:02 11.2 C 3.04 g/m*3 11.2 C 0 km/h
299 05-05-2010 11:45:02 11.9 C 2.65 g/m*3 11.9 C 0 km/h
300 05-05-2010 11:57:02 12.5 C 2.42 g/m*3 12.5 C 0 km/h
Sensor: Nr:Datum:Temp:Abs-Feuchte:Windchill:Wind:
Aussen-T/F 301 05-05-2010 12:09:02 12.7 C 2.23 g/m*3 12.7 C 0 km/h
302 05-05-2010 12:21:01 12.7 C 2.23 g/m*3 12.7 C 0 km/h
303 05-05-2010 12:33:02 13.4 C 2.32 g/m*3 13.4 C 0 km/h
304 05-05-2010 12:45:02 14.6 C 2.5 g/m*3 14.6 C 0 km/h
305 05-05-2010 12:57:02 15.2 C 2.6 g/m*3 15.2 C 0 km/h
306 05-05-2010 13:09:02 15.9 C 2.71 g/m*3 15.9 C 0 km/h
307 05-05-2010 13:21:01 16.6 C 2.83 g/m*3 16.6 C 0 km/h
308 05-05-2010 13:33:02 17.2 C 2.93 g/m*3 17.2 C 0 km/h
309 05-05-2010 13:45:01 16.6 C 2.83 g/m*3 16.6 C 0 km/h
310 05-05-2010 13:57:01 16.4 C 2.79 g/m*3 16.4 C 0 km/h
311 05-05-2010 14:09:02 16.7 C 2.84 g/m*3 16.7 C 0 km/h
312 05-05-2010 14:21:02 16.7 C 2.84 g/m*3 16.7 C 0 km/h
313 05-05-2010 14:33:01 17 C 2.89 g/m*3 17 C 0 km/h
314 05-05-2010 14:45:01 17.4 C 2.96 g/m*3 17.4 C 0 km/h
315 05-05-2010 14:57:01 17.5 C 2.98 g/m*3 17.5 C 0 km/h
316 05-05-2010 15:09:02 18.3 C 3.13 g/m*3 18.3 C 0 km/h
317 05-05-2010 15:21:02 18.2 C 3.11 g/m*3 18.2 C 0 km/h
318 05-05-2010 15:33:01 17.8 C 3.04 g/m*3 17.8 C 0 km/h
319 05-05-2010 15:45:02 18 C 3.07 g/m*3 18 C 0 km/h
320 05-05-2010 15:57:02 18.2 C 3.11 g/m*3 18.2 C 0 km/h
321 05-05-2010 16:09:01 18.3 C 3.13 g/m*3 18.3 C 0 km/h
322 05-05-2010 16:21:01 18.1 C 3.09 g/m*3 18.1 C 0 km/h
323 05-05-2010 16:33:01 17.7 C 3.02 g/m*3 17.7 C 0 km/h
324 05-05-2010 16:45:02 17.5 C 2.98 g/m*3 17.5 C 0 km/h
325 05-05-2010 16:57:02 17.2 C 2.93 g/m*3 17.2 C 0 km/h
Sensor: Nr:Datum:Temp:Abs-Feuchte:Windchill:Wind:
Aussen-T/F 326 05-05-2010 17:09:02 16.7 C 2.84 g/m*3 16.7 C 0 km/h
327 05-05-2010 17:21:02 16.2 C 2.76 g/m*3 16.2 C 0 km/h
328 05-05-2010 17:33:02 15.6 C 2.66 g/m*3 15.6 C 0 km/h
329 05-05-2010 17:45:02 15.1 C 2.58 g/m*3 15.1 C 0 km/h
330 05-05-2010 17:57:02 14.8 C 2.53 g/m*3 14.8 C 0 km/h
331 05-05-2010 18:09:01 14.5 C 2.49 g/m*3 14.5 C 0 km/h
332 05-05-2010 18:21:01 14.4 C 2.47 g/m*3 14.4 C 0 km/h
333 05-05-2010 18:33:02 14.2 C 2.44 g/m*3 14.2 C 0 km/h
334 05-05-2010 18:45:02 14.1 C 2.43 g/m*3 14.1 C 0 km/h
335 05-05-2010 18:57:02 13.8 C 2.38 g/m*3 13.8 C 0 km/h
336 05-05-2010 19:09:02 13.7 C 2.37 g/m*3 13.7 C 0 km/h
337 05-05-2010 19:21:01 13.6 C 2.35 g/m*3 13.6 C 0 km/h
338 05-05-2010 19:33:02 13.5 C 2.34 g/m*3 13.5 C 0 km/h
339 05-05-2010 19:45:02 13.3 C 2.43 g/m*3 13.3 C 0 km/h
340 05-05-2010 19:57:02 13.1 C 2.28 g/m*3 13.1 C 0 km/h
341 05-05-2010 20:09:02 13 C 2.49 g/m*3 13 C 0 km/h
342 05-05-2010 20:21:02 12.9 C 2.82 g/m*3 12.9 C 0 km/h
343 05-05-2010 20:33:02 12.8 C 2.91 g/m*3 12.8 C 0 km/h
344 05-05-2010 20:45:02 12.7 C 2.89 g/m*3 12.7 C 0 km/h
345 05-05-2010 20:57:02 12.6 C 2.88 g/m*3 12.6 C 0 km/h
346 05-05-2010 21:09:02 12.5 C 2.86 g/m*3 12.5 C 0 km/h
347 05-05-2010 21:21:02 12.4 C 2.84 g/m*3 12.4 C 0 km/h
348 05-05-2010 21:33:02 12.3 C 2.82 g/m*3 12.3 C 0 km/h
349 05-05-2010 21:45:02 12.3 C 2.93 g/m*3 12.3 C 0 km/h
350 05-05-2010 21:57:02 12.2 C 2.91 g/m*3 12.2 C 0 km/h
Sensor: Nr:Datum:Temp:Abs-Feuchte:Windchill:Wind:
Aussen-T/F 351 05-05-2010 22:09:03 12.1 C 3 g/m*3 12.1 C 0 km/h
352 05-05-2010 22:21:02 12 C 3.09 g/m*3 12 C 0 km/h
353 05-05-2010 22:34:02 11.9 C 3.39 g/m*3 11.9 C 0 km/h
354 05-05-2010 22:46:02 11.7 C 3.35 g/m*3 11.7 C 0 km/h
355 05-05-2010 22:58:02 11.7 C 3.35 g/m*3 11.7 C 0 km/h
356 05-05-2010 23:10:02 11.6 C 3.22 g/m*3 11.6 C 0 km/h
357 05-05-2010 23:22:02 11.5 C 3.2 g/m*3 11.5 C 0 km/h
358 05-05-2010 23:34:02 11.6 C 3.33 g/m*3 11.6 C 0 km/h
359 05-05-2010 23:46:02 11.4 C 3.39 g/m*3 11.4 C 0 km/h
360 05-05-2010 23:58:02 11.4 C 3.39 g/m*3 11.4 C 0 km/h
361 06-05-2010 00:10:02 11.3 C 3.47 g/m*3 11.3 C 0 km/h
362 06-05-2010 00:22:02 11.2 C 3.55 g/m*3 11.2 C 0 km/h
363 06-05-2010 00:34:02 11.2 C 3.55 g/m*3 11.2 C 0 km/h
364 06-05-2010 00:46:02 10.7 C 4.03 g/m*3 10.7 C 0 km/h
365 06-05-2010 00:58:02 9.8 C 4.45 g/m*3 9.8 C 0 km/h
366 06-05-2010 01:10:02 8.7 C 5.1 g/m*3 8.7 C 0 km/h
367 06-05-2010 01:22:02 7.9 C 5.5 g/m*3 7.9 C 0 km/h
368 06-05-2010 01:34:02 7.3 C 5.93 g/m*3 7.3 C 0 km/h
369 06-05-2010 01:46:02 7.1 C 6.01 g/m*3 7.1 C 0 km/h
370 06-05-2010 01:58:03 7 C 6.04 g/m*3 7 C 0 km/h
371 06-05-2010 02:10:03 6.9 C 6.31 g/m*3 6.9 C 0 km/h
372 06-05-2010 02:22:03 6.8 C 6.42 g/m*3 6.8 C 0 km/h
373 06-05-2010 02:34:03 6.7 C 6.53 g/m*3 6.7 C 0 km/h
374 06-05-2010 02:46:03 6.5 C 6.52 g/m*3 6.5 C 0 km/h
375 06-05-2010 02:58:03 6.8 C 6.73 g/m*3 6.8 C 0 km/h
Sensor: Nr:Datum:Temp:Abs-Feuchte:Windchill:Wind:
Aussen-T/F 376 06-05-2010 03:10:03 6.8 C 6.81 g/m*3 6.8 C 0 km/h
377 06-05-2010 03:22:03 6.7 C 6.84 g/m*3 6.7 C 0 km/h
378 06-05-2010 03:34:03 6.5 C 6.82 g/m*3 6.5 C 0 km/h
379 06-05-2010 03:46:03 6.9 C 7.01 g/m*3 6.9 C 0 km/h
380 06-05-2010 03:58:03 6.8 C 7.04 g/m*3 6.8 C 0 km/h
381 06-05-2010 04:10:03 6.9 C 7.08 g/m*3 6.9 C 0 km/h
382 06-05-2010 04:22:03 6.9 C 7.08 g/m*3 6.9 C 0 km/h
383 06-05-2010 04:34:03 6.9 C 7.08 g/m*3 6.9 C 0 km/h
384 06-05-2010 04:46:03 6.9 C 7.08 g/m*3 6.9 C 0 km/h
385 06-05-2010 04:58:03 6.8 C 7.04 g/m*3 6.8 C 0 km/h
386 06-05-2010 05:10:03 6.6 C 7.02 g/m*3 6.6 C 0 km/h
387 06-05-2010 05:22:03 6.5 C 6.97 g/m*3 6.5 C 0 km/h
388 06-05-2010 05:34:03 6.6 C 7.02 g/m*3 6.6 C 0 km/h
389 06-05-2010 05:46:03 6.8 C 7.11 g/m*3 6.8 C 0 km/h
390 06-05-2010 05:58:04 6.8 C 7.11 g/m*3 6.8 C 0 km/h
391 06-05-2010 06:10:04 6.5 C 6.97 g/m*3 6.5 C 0 km/h
392 06-05-2010 06:22:04 6.5 C 6.97 g/m*3 6.5 C 0 km/h
393 06-05-2010 06:34:04 6.5 C 6.97 g/m*3 6.5 C 0 km/h
394 06-05-2010 06:46:04 6.6 C 7.02 g/m*3 6.6 C 0 km/h
395 06-05-2010 06:58:04 6.5 C 7.05 g/m*3 6.5 C 0 km/h
396 06-05-2010 07:10:01 6.4 C 7 g/m*3 6.4 C 0 km/h
397 06-05-2010 07:22:02 6.4 C 7 g/m*3 6.4 C 0 km/h
398 06-05-2010 07:34:01 6.3 C 6.96 g/m*3 6.3 C 0 km/h
399 06-05-2010 07:46:03 6.5 C 7.05 g/m*3 6.5 C 0 km/h
400 06-05-2010 07:58:03 6.3 C 6.96 g/m*3 6.3 C 0 km/h
Sensor: Nr:Datum:Temp:Abs-Feuchte:Windchill:Wind:
Aussen-T/F 401 06-05-2010 08:10:02 6.1 C 6.87 g/m*3 6.1 C 0 km/h
402 06-05-2010 08:22:02 6.2 C 6.91 g/m*3 6.2 C 0 km/h
403 06-05-2010 08:34:03 6.2 C 6.91 g/m*3 6.2 C 0 km/h
404 06-05-2010 08:46:02 6.4 C 7 g/m*3 6.4 C 0 km/h
405 06-05-2010 08:58:02 6.2 C 6.91 g/m*3 6.2 C 0 km/h
406 06-05-2010 09:10:02 6.2 C 6.84 g/m*3 6.2 C 0 km/h
407 06-05-2010 09:22:01 6.4 C 7 g/m*3 6.4 C 0 km/h
408 06-05-2010 09:34:02 6.6 C 7.1 g/m*3 6.6 C 0 km/h
409 06-05-2010 09:46:02 6.8 C 7.19 g/m*3 6.8 C 0 km/h
410 06-05-2010 09:58:02 6.8 C 7.19 g/m*3 6.8 C 0 km/h
411 06-05-2010 10:10:02 6.8 C 7.19 g/m*3 6.8 C 0 km/h
412 06-05-2010 10:22:02 6.9 C 7.24 g/m*3 6.9 C 0 km/h
413 06-05-2010 10:34:02 6.8 C 7.11 g/m*3 6.8 C 0 km/h
414 06-05-2010 10:46:02 6.8 C 7.11 g/m*3 6.8 C 0 km/h
415 06-05-2010 10:58:02 6.9 C 7.16 g/m*3 6.9 C 0 km/h
416 06-05-2010 11:10:02 7 C 7.21 g/m*3 7 C 0 km/h
417 06-05-2010 11:22:02 7 C 7.13 g/m*3 7 C 0 km/h
418 06-05-2010 11:34:02 7 C 7.13 g/m*3 7 C 0 km/h
419 06-05-2010 11:46:01 7.1 C 7.18 g/m*3 7.1 C 0 km/h
420 06-05-2010 11:58:01 7.1 C 7.18 g/m*3 7.1 C 0 km/h
421 06-05-2010 12:10:01 7.2 C 7.22 g/m*3 7.2 C 0 km/h
422 06-05-2010 12:22:02 6.9 C 7.08 g/m*3 6.9 C 0 km/h
423 06-05-2010 12:34:02 6.9 C 7.01 g/m*3 6.9 C 0 km/h
424 06-05-2010 12:46:01 7.1 C 7.1 g/m*3 7.1 C 0 km/h
425 06-05-2010 12:58:01 7.2 C 7.06 g/m*3 7.2 C 0 km/h
Sensor: Nr:Datum:Temp:Abs-Feuchte:Windchill:Wind:
Aussen-T/F 426 06-05-2010 13:10:02 7.5 C 7.2 g/m*3 7.5 C 0 km/h
427 06-05-2010 13:22:01 7.7 C 7.3 g/m*3 7.7 C 0 km/h
428 06-05-2010 13:34:02 7.4 C 7.16 g/m*3 7.4 C 0 km/h
429 06-05-2010 13:46:02 7.3 C 7.19 g/m*3 7.3 C 0 km/h
430 06-05-2010 13:58:02 7.2 C 7.14 g/m*3 7.2 C 0 km/h
431 06-05-2010 14:10:03 7.3 C 7.27 g/m*3 7.3 C 0 km/h
432 06-05-2010 14:22:02 7.4 C 7.32 g/m*3 7.4 C 0 km/h
433 06-05-2010 14:34:03 7.3 C 7.27 g/m*3 7.3 C 0 km/h
434 06-05-2010 14:46:02 7.4 C 7.32 g/m*3 7.4 C 0 km/h
435 06-05-2010 14:58:02 7.6 C 7.49 g/m*3 7.6 C 0 km/h
436 06-05-2010 15:10:02 7.5 C 7.44 g/m*3 7.5 C 0 km/h
437 06-05-2010 15:22:02 7.1 C 7.18 g/m*3 7.1 C 0 km/h
438 06-05-2010 15:34:03 7.1 C 7.25 g/m*3 7.1 C 0 km/h
439 06-05-2010 15:46:01 6.9 C 7.16 g/m*3 6.9 C 0 km/h
440 06-05-2010 15:58:01 6.9 C 7.24 g/m*3 6.9 C 0 km/h
441 06-05-2010 16:10:02 6.7 C 7.14 g/m*3 6.7 C 0 km/h
442 06-05-2010 16:22:02 6.5 C 6.97 g/m*3 6.5 C 0 km/h
443 06-05-2010 16:34:02 6.5 C 6.97 g/m*3 6.5 C 0 km/h
444 06-05-2010 16:46:03 6.5 C 6.97 g/m*3 6.5 C 0 km/h
445 06-05-2010 16:58:03 6.5 C 6.97 g/m*3 6.5 C 0 km/h
446 06-05-2010 17:10:02 6.5 C 6.9 g/m*3 6.5 C 0 km/h
447 06-05-2010 17:22:03 6.6 C 6.95 g/m*3 6.6 C 0 km/h
448 06-05-2010 17:34:02 6.4 C 6.85 g/m*3 6.4 C 0 km/h
449 06-05-2010 17:46:03 6.5 C 6.9 g/m*3 6.5 C 0 km/h
450 06-05-2010 17:58:03 6.3 C 6.81 g/m*3 6.3 C 0 km/h
Sensor: Nr:Datum:Temp:Abs-Feuchte:Windchill:Wind:
Aussen-T/F 451 06-05-2010 18:10:02 6 C 6.6 g/m*3 6 C 0 km/h
452 06-05-2010 18:22:02 5.9 C 6.56 g/m*3 5.9 C 0 km/h
453 06-05-2010 18:34:02 5.8 C 6.52 g/m*3 5.8 C 0 km/h
454 06-05-2010 18:46:02 5.9 C 6.63 g/m*3 5.9 C 0 km/h
455 06-05-2010 18:58:02 5.9 C 6.63 g/m*3 5.9 C 0 km/h
456 06-05-2010 19:10:02 6 C 6.6 g/m*3 6 C 0 km/h
457 06-05-2010 19:22:02 5.9 C 6.63 g/m*3 5.9 C 0 km/h
458 06-05-2010 19:34:02 5.9 C 6.63 g/m*3 5.9 C 0 km/h
459 06-05-2010 19:46:02 5.7 C 6.55 g/m*3 5.7 C 0 km/h
460 06-05-2010 19:58:02 5.6 C 6.57 g/m*3 5.6 C 0 km/h
461 06-05-2010 20:10:01 5.6 C 6.57 g/m*3 5.6 C 0 km/h
462 06-05-2010 20:22:02 5.5 C 6.53 g/m*3 5.5 C 0 km/h
463 06-05-2010 20:34:02 5.6 C 6.65 g/m*3 5.6 C 0 km/h
464 06-05-2010 20:46:02 5.4 C 6.56 g/m*3 5.4 C 0 km/h
465 06-05-2010 20:58:02 5.4 C 6.56 g/m*3 5.4 C 0 km/h
466 06-05-2010 21:10:01 5.4 C 6.56 g/m*3 5.4 C 0 km/h
467 06-05-2010 21:22:02 5.4 C 6.56 g/m*3 5.4 C 0 km/h
468 06-05-2010 21:34:01 5.3 C 6.52 g/m*3 5.3 C 0 km/h
469 06-05-2010 21:46:03 5.4 C 6.56 g/m*3 5.4 C 0 km/h
470 06-05-2010 21:58:03 5.4 C 6.56 g/m*3 5.4 C 0 km/h
471 06-05-2010 22:10:02 5.4 C 6.63 g/m*3 5.4 C 0 km/h
472 06-05-2010 22:22:02 5.4 C 6.63 g/m*3 5.4 C 0 km/h
473 06-05-2010 22:34:02 5.4 C 6.63 g/m*3 5.4 C 0 km/h
474 06-05-2010 22:47:02 5.4 C 6.63 g/m*3 5.4 C 0 km/h
475 06-05-2010 22:59:02 5.4 C 6.63 g/m*3 5.4 C 0 km/h
Sensor: Nr:Datum:Temp:Abs-Feuchte:Windchill:Wind:
Aussen-T/F 476 06-05-2010 23:11:02 5.4 C 6.63 g/m*3 5.4 C 0 km/h
477 06-05-2010 23:23:02 5.4 C 6.63 g/m*3 5.4 C 0 km/h
478 06-05-2010 23:35:02 5.4 C 6.63 g/m*3 5.4 C 0 km/h
479 06-05-2010 23:47:02 5.3 C 6.58 g/m*3 5.3 C 0 km/h
480 06-05-2010 23:59:02 5.3 C 6.58 g/m*3 5.3 C 0 km/h
481 07-05-2010 00:11:02 5.4 C 6.63 g/m*3 5.4 C 0 km/h
482 07-05-2010 00:23:02 5.4 C 6.63 g/m*3 5.4 C 0 km/h
483 07-05-2010 00:35:02 5.4 C 6.63 g/m*3 5.4 C 0 km/h
484 07-05-2010 00:47:02 5.4 C 6.63 g/m*3 5.4 C 0 km/h
485 07-05-2010 00:59:02 5.4 C 6.63 g/m*3 5.4 C 0 km/h
486 07-05-2010 01:11:03 5.4 C 6.63 g/m*3 5.4 C 0 km/h
487 07-05-2010 01:23:03 5.4 C 6.63 g/m*3 5.4 C 0 km/h
488 07-05-2010 01:35:03 5.4 C 6.63 g/m*3 5.4 C 0 km/h
489 07-05-2010 01:47:03 5.4 C 6.63 g/m*3 5.4 C 0 km/h
490 07-05-2010 01:59:03 5.4 C 6.63 g/m*3 5.4 C 0 km/h
491 07-05-2010 02:11:03 5.4 C 6.63 g/m*3 5.4 C 0 km/h
492 07-05-2010 02:23:03 5.4 C 6.63 g/m*3 5.4 C 0 km/h
493 07-05-2010 02:35:03 5.4 C 6.63 g/m*3 5.4 C 0 km/h
494 07-05-2010 02:47:03 5.4 C 6.63 g/m*3 5.4 C 0 km/h
495 07-05-2010 02:59:03 5.4 C 6.63 g/m*3 5.4 C 0 km/h
496 07-05-2010 03:11:03 5.4 C 6.63 g/m*3 5.4 C 0 km/h
497 07-05-2010 03:23:03 5.4 C 6.63 g/m*3 5.4 C 0 km/h
498 07-05-2010 03:35:03 5.3 C 6.58 g/m*3 5.3 C 0 km/h
499 07-05-2010 03:47:03 5.3 C 6.58 g/m*3 5.3 C 0 km/h
500 07-05-2010 03:59:03 5.2 C 6.54 g/m*3 5.2 C 0 km/h
Sensor: Nr:Datum:Temp:Abs-Feuchte:Windchill:Wind:
Aussen-T/F 501 07-05-2010 04:11:03 5.2 C 6.54 g/m*3 5.2 C 0 km/h
502 07-05-2010 04:23:03 5.2 C 6.54 g/m*3 5.2 C 0 km/h
503 07-05-2010 04:35:03 5.2 C 6.54 g/m*3 5.2 C 0 km/h
504 07-05-2010 04:47:03 5.2 C 6.54 g/m*3 5.2 C 0 km/h
505 07-05-2010 04:59:03 5.1 C 6.5 g/m*3 5.1 C 0 km/h
506 07-05-2010 05:11:04 5 C 6.46 g/m*3 5 C 0 km/h
507 07-05-2010 05:23:04 5 C 6.46 g/m*3 5 C 0 km/h
508 07-05-2010 05:35:04 4.9 C 6.41 g/m*3 4.9 C 0 km/h
509 07-05-2010 05:47:04 4.8 C 6.37 g/m*3 4.8 C 0 km/h
510 07-05-2010 05:59:04 4.7 C 6.33 g/m*3 4.7 C 0 km/h
511 07-05-2010 06:11:04 4.7 C 6.33 g/m*3 4.7 C 0 km/h
512 07-05-2010 06:23:04 4.6 C 6.29 g/m*3 4.6 C 0 km/h
513 07-05-2010 06:35:04 4.5 C 6.24 g/m*3 4.5 C 0 km/h
514 07-05-2010 06:47:04 4.6 C 6.29 g/m*3 4.6 C 0 km/h
515 07-05-2010 06:59:04 4.6 C 6.29 g/m*3 4.6 C 0 km/h
516 07-05-2010 07:11:04 4.6 C 6.29 g/m*3 4.6 C 0 km/h
517 07-05-2010 07:23:04 4.7 C 6.33 g/m*3 4.7 C 0 km/h
518 07-05-2010 07:35:04 4.6 C 6.29 g/m*3 4.6 C 0 km/h
519 07-05-2010 07:47:04 4.7 C 6.33 g/m*3 4.7 C 0 km/h
520 07-05-2010 07:59:04 4.8 C 6.37 g/m*3 4.8 C 0 km/h
521 07-05-2010 08:11:04 4.9 C 6.41 g/m*3 4.9 C 0 km/h
522 07-05-2010 08:23:04 4.8 C 6.37 g/m*3 4.8 C 0 km/h
523 07-05-2010 08:35:02 5 C 6.46 g/m*3 5 C 0 km/h
524 07-05-2010 08:47:02 4.8 C 6.3 g/m*3 4.8 C 0 km/h
525 07-05-2010 08:59:02 4.6 C 6.22 g/m*3 4.6 C 0 km/h
Sensor: Nr:Datum:Temp:Abs-Feuchte:Windchill:Wind:
Aussen-T/F 526 07-05-2010 09:11:02 4.9 C 6.28 g/m*3 4.9 C 0 km/h
527 07-05-2010 09:23:03 4.8 C 6.24 g/m*3 4.8 C 0 km/h
528 07-05-2010 09:35:02 4.7 C 6.13 g/m*3 4.7 C 0 km/h
529 07-05-2010 09:47:02 5 C 6.12 g/m*3 5 C 0 km/h
530 07-05-2010 09:59:02 4.9 C 6.08 g/m*3 4.9 C 0 km/h
531 07-05-2010 10:11:02 5 C 6.05 g/m*3 5 C 0 km/h
532 07-05-2010 10:23:02 5.3 C 6.17 g/m*3 5.3 C 0 km/h
533 07-05-2010 10:35:02 6 C 6.39 g/m*3 6 C 0 km/h
534 07-05-2010 10:47:02 5.6 C 6.15 g/m*3 5.6 C 0 km/h
535 07-05-2010 10:59:02 5.7 C 6.12 g/m*3 5.7 C 0 km/h
536 07-05-2010 11:11:01 6.8 C 6.58 g/m*3 6.8 C 0 km/h
537 07-05-2010 11:23:02 7 C 6.66 g/m*3 7 C 0 km/h
538 07-05-2010 11:35:02 7.1 C 6.71 g/m*3 7.1 C 0 km/h
539 07-05-2010 11:47:02 7.1 C 6.71 g/m*3 7.1 C 0 km/h
540 07-05-2010 11:59:02 7.1 C 6.63 g/m*3 7.1 C 0 km/h
541 07-05-2010 12:11:03 7.1 C 6.4 g/m*3 7.1 C 0 km/h
542 07-05-2010 12:23:02 7 C 6.28 g/m*3 7 C 0 km/h
543 07-05-2010 12:35:02 7.1 C 6.4 g/m*3 7.1 C 0 km/h
544 07-05-2010 12:47:01 7.3 C 6.48 g/m*3 7.3 C 0 km/h
545 07-05-2010 12:59:01 7.2 C 6.2 g/m*3 7.2 C 0 km/h
546 07-05-2010 13:11:02 7.3 C 6.4 g/m*3 7.3 C 0 km/h
547 07-05-2010 13:23:01 7.8 C 6.61 g/m*3 7.8 C 0 km/h
548 07-05-2010 13:35:02 8.3 C 6.66 g/m*3 8.3 C 0 km/h
549 07-05-2010 13:47:01 7.9 C 6.49 g/m*3 7.9 C 0 km/h
550 07-05-2010 13:59:01 7.7 C 6.41 g/m*3 7.7 C 0 km/h
Sensor: Nr:Datum:Temp:Abs-Feuchte:Windchill:Wind:
Aussen-T/F 551 07-05-2010 14:11:02 8.6 C 6.87 g/m*3 8.6 C 0 km/h
552 07-05-2010 14:23:01 8.4 C 6.79 g/m*3 8.4 C 0 km/h
553 07-05-2010 14:35:02 8.5 C 6.92 g/m*3 8.5 C 0 km/h
554 07-05-2010 14:47:01 8.3 C 6.83 g/m*3 8.3 C 0 km/h
555 07-05-2010 14:59:01 8.3 C 6.66 g/m*3 8.3 C 0 km/h
556 07-05-2010 15:11:02 8.4 C 6.87 g/m*3 8.4 C 0 km/h
557 07-05-2010 15:23:02 7.8 C 6.61 g/m*3 7.8 C 0 km/h
558 07-05-2010 15:35:02 7.7 C 6.57 g/m*3 7.7 C 0 km/h
559 07-05-2010 15:47:02 8.5 C 7 g/m*3 8.5 C 0 km/h
560 07-05-2010 15:59:02 8.6 C 7.05 g/m*3 8.6 C 0 km/h
561 07-05-2010 16:11:01 9.3 C 7.19 g/m*3 9.3 C 0 km/h
562 07-05-2010 16:23:01 9.2 C 6.97 g/m*3 9.2 C 0 km/h
563 07-05-2010 16:35:01 9 C 6.61 g/m*3 9 C 0 km/h
564 07-05-2010 16:47:01 9.2 C 6.97 g/m*3 9.2 C 0 km/h
565 07-05-2010 16:59:01 9.1 C 6.92 g/m*3 9.1 C 0 km/h
566 07-05-2010 17:11:02 8.9 C 6.92 g/m*3 8.9 C 0 km/h
567 07-05-2010 17:23:01 9.2 C 6.97 g/m*3 9.2 C 0 km/h
568 07-05-2010 17:35:02 9.4 C 7.05 g/m*3 9.4 C 0 km/h
569 07-05-2010 17:47:01 9.8 C 7.24 g/m*3 9.8 C 0 km/h
570 07-05-2010 17:59:01 9.8 C 7.24 g/m*3 9.8 C 0 km/h
571 07-05-2010 18:11:02 9.8 C 7.24 g/m*3 9.8 C 0 km/h
572 07-05-2010 18:23:02 9.4 C 6.96 g/m*3 9.4 C 0 km/h
573 07-05-2010 18:35:02 9 C 6.88 g/m*3 9 C 0 km/h
574 07-05-2010 18:47:02 9 C 7.05 g/m*3 9 C 0 km/h
575 07-05-2010 18:59:02 8.5 C 7 g/m*3 8.5 C 0 km/h
Sensor: Nr:Datum:Temp:Abs-Feuchte:Windchill:Wind:
Aussen-T/F 576 07-05-2010 19:11:02 8.2 C 7.03 g/m*3 8.2 C 0 km/h
577 07-05-2010 19:23:02 8.1 C 6.99 g/m*3 8.1 C 0 km/h
578 07-05-2010 19:35:02 7.9 C 7.06 g/m*3 7.9 C 0 km/h
579 07-05-2010 19:47:02 7.6 C 7.09 g/m*3 7.6 C 0 km/h
580 07-05-2010 19:59:02 7.7 C 7.14 g/m*3 7.7 C 0 km/h
581 07-05-2010 20:11:02 7.3 C 7.03 g/m*3 7.3 C 0 km/h
582 07-05-2010 20:23:01 7.3 C 7.03 g/m*3 7.3 C 0 km/h
583 07-05-2010 20:35:02 7.2 C 7.06 g/m*3 7.2 C 0 km/h
584 07-05-2010 20:47:02 7.1 C 7.1 g/m*3 7.1 C 0 km/h
585 07-05-2010 20:59:02 6.9 C 7.08 g/m*3 6.9 C 0 km/h
586 07-05-2010 21:11:02 6.7 C 6.99 g/m*3 6.7 C 0 km/h
587 07-05-2010 21:23:02 6.8 C 7.04 g/m*3 6.8 C 0 km/h
588 07-05-2010 21:35:02 6.8 C 7.11 g/m*3 6.8 C 0 km/h
589 07-05-2010 21:47:02 6.7 C 7.07 g/m*3 6.7 C 0 km/h
590 07-05-2010 21:59:02 6.4 C 6.93 g/m*3 6.4 C 0 km/h
591 07-05-2010 22:11:02 6.1 C 6.79 g/m*3 6.1 C 0 km/h
592 07-05-2010 22:23:02 5.9 C 6.71 g/m*3 5.9 C 0 km/h
593 07-05-2010 22:35:02 5.7 C 6.62 g/m*3 5.7 C 0 km/h
594 07-05-2010 22:47:02 5.6 C 6.57 g/m*3 5.6 C 0 km/h
595 07-05-2010 22:59:02 5.7 C 6.69 g/m*3 5.7 C 0 km/h
596 07-05-2010 23:11:01 5.9 C 6.78 g/m*3 5.9 C 0 km/h
597 07-05-2010 23:23:02 5.9 C 6.78 g/m*3 5.9 C 0 km/h
598 07-05-2010 23:35:02 5.9 C 6.85 g/m*3 5.9 C 0 km/h
599 07-05-2010 23:47:02 6 C 6.82 g/m*3 6 C 0 km/h
600 07-05-2010 23:59:03 6.1 C 6.87 g/m*3 6.1 C 0 km/h
Sensor: Nr:Datum:Temp:Abs-Feuchte:Windchill:Wind:
Aussen-T/F 601 08-05-2010 00:11:01 6.2 C 6.91 g/m*3 6.2 C 0 km/h
602 08-05-2010 00:23:02 6.2 C 6.91 g/m*3 6.2 C 0 km/h
603 08-05-2010 00:35:01 6 C 6.82 g/m*3 6 C 0 km/h
604 08-05-2010 00:47:02 5.6 C 6.65 g/m*3 5.6 C 0 km/h
605 08-05-2010 00:59:02 5.5 C 6.6 g/m*3 5.5 C 0 km/h
606 08-05-2010 01:11:02 5.4 C 6.56 g/m*3 5.4 C 0 km/h
607 08-05-2010 01:23:02 5.1 C 6.43 g/m*3 5.1 C 0 km/h
608 08-05-2010 01:35:02 4.9 C 6.35 g/m*3 4.9 C 0 km/h
609 08-05-2010 01:47:02 4.7 C 6.26 g/m*3 4.7 C 0 km/h
610 08-05-2010 01:59:02 4.7 C 6.33 g/m*3 4.7 C 0 km/h
611 08-05-2010 02:11:01 4.5 C 6.18 g/m*3 4.5 C 0 km/h
612 08-05-2010 02:23:02 4.5 C 6.24 g/m*3 4.5 C 0 km/h
613 08-05-2010 02:35:02 4.6 C 6.29 g/m*3 4.6 C 0 km/h
614 08-05-2010 02:48:03 4.4 C 6.2 g/m*3 4.4 C 0 km/h
615 08-05-2010 03:00:03 4.5 C 6.24 g/m*3 4.5 C 0 km/h
616 08-05-2010 03:12:03 4.6 C 6.29 g/m*3 4.6 C 0 km/h
617 08-05-2010 03:24:03 4.7 C 6.33 g/m*3 4.7 C 0 km/h
618 08-05-2010 03:36:02 4.6 C 6.29 g/m*3 4.6 C 0 km/h
619 08-05-2010 03:48:02 4.6 C 6.29 g/m*3 4.6 C 0 km/h
620 08-05-2010 04:00:02 4.7 C 6.33 g/m*3 4.7 C 0 km/h
621 08-05-2010 04:12:02 4.6 C 6.29 g/m*3 4.6 C 0 km/h
622 08-05-2010 04:24:02 4.4 C 6.2 g/m*3 4.4 C 0 km/h
623 08-05-2010 04:36:02 4 C 6.04 g/m*3 4 C 0 km/h
624 08-05-2010 04:48:02 4 C 6.04 g/m*3 4 C 0 km/h
625 08-05-2010 05:00:02 4.1 C 6.08 g/m*3 4.1 C 0 km/h
Sensor: Nr:Datum:Temp:Abs-Feuchte:Windchill:Wind:
Aussen-T/F 626 08-05-2010 05:12:01 4.2 C 6.12 g/m*3 4.2 C 0 km/h
627 08-05-2010 05:24:02 4.4 C 6.2 g/m*3 4.4 C 0 km/h
628 08-05-2010 05:36:02 4.5 C 6.24 g/m*3 4.5 C 0 km/h
629 08-05-2010 05:48:02 4.5 C 6.24 g/m*3 4.5 C 0 km/h
630 08-05-2010 06:00:02 4.5 C 6.24 g/m*3 4.5 C 0 km/h
631 08-05-2010 06:12:03 4.6 C 6.29 g/m*3 4.6 C 0 km/h
632 08-05-2010 06:24:02 4.6 C 6.29 g/m*3 4.6 C 0 km/h
633 08-05-2010 06:36:02 4.8 C 6.37 g/m*3 4.8 C 0 km/h
634 08-05-2010 06:48:01 4.8 C 6.37 g/m*3 4.8 C 0 km/h
635 08-05-2010 07:00:01 4.8 C 6.37 g/m*3 4.8 C 0 km/h
636 08-05-2010 07:12:02 5 C 6.46 g/m*3 5 C 0 km/h
637 08-05-2010 07:24:01 5.2 C 6.54 g/m*3 5.2 C 0 km/h
638 08-05-2010 07:36:01 5.5 C 6.67 g/m*3 5.5 C 0 km/h
639 08-05-2010 07:48:01 5.6 C 6.72 g/m*3 5.6 C 0 km/h
640 08-05-2010 08:00:01 5.9 C 6.78 g/m*3 5.9 C 0 km/h
641 08-05-2010 08:12:02 6 C 6.68 g/m*3 6 C 0 km/h
642 08-05-2010 08:24:01 5.8 C 6.52 g/m*3 5.8 C 0 km/h
643 08-05-2010 08:36:01 6.2 C 6.55 g/m*3 6.2 C 0 km/h
644 08-05-2010 08:48:01 6.5 C 6.6 g/m*3 6.5 C 0 km/h
645 08-05-2010 09:00:01 7.3 C 6.87 g/m*3 7.3 C 0 km/h
646 08-05-2010 09:12:02 8 C 7.03 g/m*3 8 C 0 km/h
647 08-05-2010 09:24:01 8.1 C 6.82 g/m*3 8.1 C 0 km/h
648 08-05-2010 09:36:01 8.7 C 7.01 g/m*3 8.7 C 0 km/h
649 08-05-2010 09:48:01 9.2 C 7.05 g/m*3 9.2 C 0 km/h
650 08-05-2010 10:00:01 9.1 C 6.74 g/m*3 9.1 C 0 km/h
Sensor: Nr:Datum:Temp:Abs-Feuchte:Windchill:Wind:
Aussen-T/F 651 08-05-2010 10:12:02 9.1 C 6.57 g/m*3 9.1 C 0 km/h
652 08-05-2010 10:24:01 9.6 C 6.87 g/m*3 9.6 C 0 km/h
653 08-05-2010 10:36:01 10.1 C 6.9 g/m*3 10.1 C 0 km/h
654 08-05-2010 10:48:01 10.4 C 7.04 g/m*3 10.4 C 0 km/h
655 08-05-2010 11:00:01 11.2 C 7.3 g/m*3 11.2 C 0 km/h
656 08-05-2010 11:12:02 12.1 C 7.18 g/m*3 12.1 C 0 km/h
657 08-05-2010 11:24:01 12.8 C 7.06 g/m*3 12.8 C 0 km/h
658 08-05-2010 11:36:01 14.1 C 6.31 g/m*3 14.1 C 0 km/h
659 08-05-2010 11:48:01 15.1 C 5.55 g/m*3 15.1 C 0 km/h
660 08-05-2010 12:00:01 14.8 C 5.32 g/m*3 14.8 C 0 km/h
661 08-05-2010 12:12:01 14.5 C 4.97 g/m*3 14.5 C 0 km/h
662 08-05-2010 12:24:02 15.6 C 5.19 g/m*3 15.6 C 0 km/h
663 08-05-2010 12:36:01 15 C 4.74 g/m*3 15 C 0 km/h
664 08-05-2010 12:48:03 16.3 C 5.13 g/m*3 16.3 C 0 km/h
665 08-05-2010 13:00:03 16.5 C 5.2 g/m*3 16.5 C 0 km/h
666 08-05-2010 13:12:02 16 C 5.31 g/m*3 16 C 0 km/h
667 08-05-2010 13:24:02 15.8 C 5.25 g/m*3 15.8 C 0 km/h
668 08-05-2010 13:36:02 17.5 C 5.37 g/m*3 17.5 C 0 km/h
669 08-05-2010 13:48:02 18.4 C 4.88 g/m*3 18.4 C 0 km/h
670 08-05-2010 14:00:02 16.4 C 4.19 g/m*3 16.4 C 0 km/h
671 08-05-2010 14:12:02 15.5 C 4.1 g/m*3 15.5 C 0 km/h
672 08-05-2010 14:24:02 15 C 4.36 g/m*3 15 C 0 km/h
673 08-05-2010 14:36:01 15.6 C 4.39 g/m*3 15.6 C 0 km/h
674 08-05-2010 14:48:02 15.6 C 4.12 g/m*3 15.6 C 0 km/h
675 08-05-2010 15:00:02 16 C 4.22 g/m*3 16 C 0 km/h
Sensor: Nr:Datum:Temp:Abs-Feuchte:Windchill:Wind:
Aussen-T/F 676 08-05-2010 15:12:01 16.1 C 4.25 g/m*3 16.1 C 0 km/h
677 08-05-2010 15:24:02 16 C 4.36 g/m*3 16 C 0 km/h
678 08-05-2010 15:36:02 16 C 4.36 g/m*3 16 C 0 km/h
679 08-05-2010 15:48:02 15.5 C 4.63 g/m*3 15.5 C 0 km/h
680 08-05-2010 16:00:02 16.4 C 4.61 g/m*3 16.4 C 0 km/h
681 08-05-2010 16:12:03 16.6 C 4.38 g/m*3 16.6 C 0 km/h
682 08-05-2010 16:24:02 16.4 C 4.47 g/m*3 16.4 C 0 km/h
683 08-05-2010 16:36:02 17.5 C 4.32 g/m*3 17.5 C 0 km/h
684 08-05-2010 16:48:01 17.6 C 4.2 g/m*3 17.6 C 0 km/h
685 08-05-2010 17:00:01 17.4 C 4.15 g/m*3 17.4 C 0 km/h
686 08-05-2010 17:12:02 17.5 C 4.17 g/m*3 17.5 C 0 km/h
687 08-05-2010 17:24:01 18.5 C 4.27 g/m*3 18.5 C 0 km/h
688 08-05-2010 17:36:02 17.9 C 4.12 g/m*3 17.9 C 0 km/h
689 08-05-2010 17:48:01 18.7 C 4.16 g/m*3 18.7 C 0 km/h
690 08-05-2010 18:00:01 19.2 C 4.12 g/m*3 19.2 C 0 km/h
691 08-05-2010 18:12:02 19.9 C 3.95 g/m*3 19.9 C 0 km/h
692 08-05-2010 18:24:01 19.4 C 4 g/m*3 19.4 C 0 km/h
693 08-05-2010 18:36:02 19.5 C 4.2 g/m*3 19.5 C 0 km/h
694 08-05-2010 18:48:01 19.8 C 4.27 g/m*3 19.8 C 0 km/h
695 08-05-2010 19:00:01 19.1 C 4.1 g/m*3 19.1 C 0 km/h
696 08-05-2010 19:12:02 18.8 C 4.03 g/m*3 18.8 C 0 km/h
697 08-05-2010 19:24:02 18.4 C 4.25 g/m*3 18.4 C 0 km/h
698 08-05-2010 19:36:02 17.5 C 4.47 g/m*3 17.5 C 0 km/h
699 08-05-2010 19:48:01 17.6 C 4.65 g/m*3 17.6 C 0 km/h
700 08-05-2010 20:00:01 17.3 C 5.16 g/m*3 17.3 C 0 km/h
Sensor: Nr:Datum:Temp:Abs-Feuchte:Windchill:Wind:
Aussen-T/F 701 08-05-2010 20:12:02 16.5 C 6.04 g/m*3 16.5 C 0 km/h
702 08-05-2010 20:24:02 15.7 C 6.42 g/m*3 15.7 C 0 km/h
703 08-05-2010 20:36:02 15.1 C 6.06 g/m*3 15.1 C 0 km/h
704 08-05-2010 20:48:01 14.3 C 6.02 g/m*3 14.3 C 0 km/h
705 08-05-2010 21:00:01 13.8 C 5.96 g/m*3 13.8 C 0 km/h
706 08-05-2010 21:12:02 13.5 C 6.08 g/m*3 13.5 C 0 km/h
707 08-05-2010 21:24:02 13.5 C 6.43 g/m*3 13.5 C 0 km/h
708 08-05-2010 21:36:02 13.5 C 6.08 g/m*3 13.5 C 0 km/h
709 08-05-2010 21:48:02 12.9 C 5.97 g/m*3 12.9 C 0 km/h
710 08-05-2010 22:00:02 12.4 C 5.9 g/m*3 12.4 C 0 km/h
711 08-05-2010 22:12:02 11.9 C 6.04 g/m*3 11.9 C 0 km/h
712 08-05-2010 22:24:02 11.7 C 5.86 g/m*3 11.7 C 0 km/h
713 08-05-2010 22:36:01 11.8 C 6.21 g/m*3 11.8 C 0 km/h
714 08-05-2010 22:48:02 12 C 6.39 g/m*3 12 C 0 km/h
715 08-05-2010 23:00:02 11.8 C 6.21 g/m*3 11.8 C 0 km/h
716 08-05-2010 23:12:01 11.6 C 6.34 g/m*3 11.6 C 0 km/h
717 08-05-2010 23:24:02 11 C 6.21 g/m*3 11 C 0 km/h
718 08-05-2010 23:36:01 10.6 C 6.25 g/m*3 10.6 C 0 km/h
719 08-05-2010 23:48:02 10.3 C 6.22 g/m*3 10.3 C 0 km/h
720 09-05-2010 00:00:02 10.2 C 6.38 g/m*3 10.2 C 0 km/h
721 09-05-2010 00:12:02 10 C 6.39 g/m*3 10 C 0 km/h
722 09-05-2010 00:24:03 9.8 C 6.49 g/m*3 9.8 C 0 km/h
723 09-05-2010 00:36:02 9.6 C 6.41 g/m*3 9.6 C 0 km/h
724 09-05-2010 00:48:02 9.4 C 6.42 g/m*3 9.4 C 0 km/h
725 09-05-2010 01:00:02 9.1 C 6.39 g/m*3 9.1 C 0 km/h
Sensor: Nr:Datum:Temp:Abs-Feuchte:Windchill:Wind:
Aussen-T/F 726 09-05-2010 01:12:02 9 C 6.52 g/m*3 9 C 0 km/h
727 09-05-2010 01:24:03 8.7 C 6.49 g/m*3 8.7 C 0 km/h
728 09-05-2010 01:36:02 8.6 C 6.44 g/m*3 8.6 C 0 km/h
729 09-05-2010 01:48:03 8.7 C 6.57 g/m*3 8.7 C 0 km/h
730 09-05-2010 02:00:03 8.8 C 6.7 g/m*3 8.8 C 0 km/h
731 09-05-2010 02:12:02 8.7 C 6.66 g/m*3 8.7 C 0 km/h
732 09-05-2010 02:24:02 8.7 C 6.66 g/m*3 8.7 C 0 km/h
733 09-05-2010 02:36:02 8.4 C 6.53 g/m*3 8.4 C 0 km/h
734 09-05-2010 02:49:04 8.5 C 6.57 g/m*3 8.5 C 0 km/h
735 09-05-2010 03:01:04 8.5 C 6.66 g/m*3 8.5 C 0 km/h
736 09-05-2010 03:13:03 8.3 C 6.57 g/m*3 8.3 C 0 km/h
737 09-05-2010 03:25:03 8.5 C 6.66 g/m*3 8.5 C 0 km/h
738 09-05-2010 03:37:01 8.5 C 6.66 g/m*3 8.5 C 0 km/h
739 09-05-2010 03:49:01 8.5 C 6.66 g/m*3 8.5 C 0 km/h
740 09-05-2010 04:01:01 8.6 C 6.7 g/m*3 8.6 C 0 km/h
741 09-05-2010 04:13:01 8.6 C 6.7 g/m*3 8.6 C 0 km/h
742 09-05-2010 04:25:02 8.5 C 6.66 g/m*3 8.5 C 0 km/h
743 09-05-2010 04:37:01 8.5 C 6.66 g/m*3 8.5 C 0 km/h
744 09-05-2010 04:49:03 8.3 C 6.57 g/m*3 8.3 C 0 km/h
745 09-05-2010 05:01:02 8 C 6.45 g/m*3 8 C 0 km/h
746 09-05-2010 05:13:02 7.8 C 6.53 g/m*3 7.8 C 0 km/h
747 09-05-2010 05:25:02 7.6 C 6.53 g/m*3 7.6 C 0 km/h
748 09-05-2010 05:37:02 7.4 C 6.52 g/m*3 7.4 C 0 km/h
749 09-05-2010 05:49:02 7.4 C 6.52 g/m*3 7.4 C 0 km/h
750 09-05-2010 06:01:02 7.6 C 6.69 g/m*3 7.6 C 0 km/h
Sensor: Nr:Datum:Temp:Abs-Feuchte:Windchill:Wind:
Aussen-T/F 751 09-05-2010 06:13:02 7.9 C 6.82 g/m*3 7.9 C 0 km/h
752 09-05-2010 06:25:02 8 C 6.7 g/m*3 8 C 0 km/h
753 09-05-2010 06:37:02 8.1 C 6.74 g/m*3 8.1 C 0 km/h
754 09-05-2010 06:49:02 8.3 C 6.83 g/m*3 8.3 C 0 km/h
755 09-05-2010 07:01:02 8.5 C 6.92 g/m*3 8.5 C 0 km/h
756 09-05-2010 07:13:02 8.6 C 6.87 g/m*3 8.6 C 0 km/h
757 09-05-2010 07:25:01 8.7 C 6.83 g/m*3 8.7 C 0 km/h
758 09-05-2010 07:37:02 9.1 C 6.92 g/m*3 9.1 C 0 km/h
759 09-05-2010 07:49:02 9.1 C 6.83 g/m*3 9.1 C 0 km/h
760 09-05-2010 08:01:02 9.6 C 6.96 g/m*3 9.6 C 0 km/h
761 09-05-2010 08:13:02 9.6 C 6.96 g/m*3 9.6 C 0 km/h
762 09-05-2010 08:25:02 9.6 C 6.87 g/m*3 9.6 C 0 km/h
763 09-05-2010 08:37:02 10 C 7.05 g/m*3 10 C 0 km/h
764 09-05-2010 08:49:02 10.4 C 7.04 g/m*3 10.4 C 0 km/h
765 09-05-2010 09:01:02 10.8 C 7.02 g/m*3 10.8 C 0 km/h
766 09-05-2010 09:13:02 10.9 C 7.16 g/m*3 10.9 C 0 km/h
767 09-05-2010 09:25:02 11.1 C 6.95 g/m*3 11.1 C 0 km/h
768 09-05-2010 09:37:03 11.7 C 7.11 g/m*3 11.7 C 0 km/h
769 09-05-2010 09:49:02 12 C 6.93 g/m*3 12 C 0 km/h
770 09-05-2010 10:01:01 12.4 C 6.99 g/m*3 12.4 C 0 km/h
771 09-05-2010 10:13:01 12.7 C 7.12 g/m*3 12.7 C 0 km/h
772 09-05-2010 10:25:01 12.2 C 7.23 g/m*3 12.2 C 0 km/h
773 09-05-2010 10:37:02 12.2 C 7.55 g/m*3 12.2 C 0 km/h
774 09-05-2010 10:49:02 12 C 7.35 g/m*3 12 C 0 km/h
775 09-05-2010 11:01:01 12.2 C 7.55 g/m*3 12.2 C 0 km/h
Sensor: Nr:Datum:Temp:Abs-Feuchte:Windchill:Wind:
Aussen-T/F 776 09-05-2010 11:13:01 12.4 C 7.54 g/m*3 12.4 C 0 km/h
777 09-05-2010 11:25:02 12.3 C 7.38 g/m*3 12.3 C 0 km/h
778 09-05-2010 11:37:01 12.3 C 7.28 g/m*3 12.3 C 0 km/h
779 09-05-2010 11:49:02 12.2 C 7.23 g/m*3 12.2 C 0 km/h
780 09-05-2010 12:01:02 12.3 C 7.28 g/m*3 12.3 C 0 km/h
781 09-05-2010 12:13:02 13 C 7.37 g/m*3 13 C 0 km/h
782 09-05-2010 12:25:02 13.4 C 7.21 g/m*3 13.4 C 0 km/h
783 09-05-2010 12:37:02 14 C 7.24 g/m*3 14 C 0 km/h
784 09-05-2010 12:49:02 14.4 C 7.17 g/m*3 14.4 C 0 km/h
785 09-05-2010 13:01:01 15 C 6.92 g/m*3 15 C 0 km/h
786 09-05-2010 13:13:01 16.2 C 7.03 g/m*3 16.2 C 0 km/h
787 09-05-2010 13:25:01 17.2 C 6.59 g/m*3 17.2 C 0 km/h
788 09-05-2010 13:37:02 18.5 C 6.33 g/m*3 18.5 C 0 km/h
789 09-05-2010 13:49:02 18.2 C 6.22 g/m*3 18.2 C 0 km/h
790 09-05-2010 14:01:02 17.9 C 6.11 g/m*3 17.9 C 0 km/h
791 09-05-2010 14:13:02 17.5 C 6.11 g/m*3 17.5 C 0 km/h
792 09-05-2010 14:25:02 16.7 C 6.11 g/m*3 16.7 C 0 km/h
793 09-05-2010 14:37:01 16.7 C 6.11 g/m*3 16.7 C 0 km/h
794 09-05-2010 14:49:02 17 C 6.22 g/m*3 17 C 0 km/h
795 09-05-2010 15:01:01 17 C 6.22 g/m*3 17 C 0 km/h
796 09-05-2010 15:13:01 17.3 C 6.33 g/m*3 17.3 C 0 km/h
797 09-05-2010 15:25:02 17.6 C 6.3 g/m*3 17.6 C 0 km/h
798 09-05-2010 15:37:01 17.8 C 6.37 g/m*3 17.8 C 0 km/h
799 09-05-2010 15:49:03 17.9 C 6.26 g/m*3 17.9 C 0 km/h
800 09-05-2010 16:01:02 18 C 6.3 g/m*3 18 C 0 km/h
Sensor: Nr:Datum:Temp:Abs-Feuchte:Windchill:Wind:
Aussen-T/F 801 09-05-2010 16:13:02 18.7 C 6.4 g/m*3 18.7 C 0 km/h
802 09-05-2010 16:25:02 19.1 C 6.23 g/m*3 19.1 C 0 km/h
803 09-05-2010 16:37:02 18.7 C 6.08 g/m*3 18.7 C 0 km/h
804 09-05-2010 16:49:02 18 C 5.68 g/m*3 18 C 0 km/h
805 09-05-2010 17:01:02 17.8 C 5.77 g/m*3 17.8 C 0 km/h
806 09-05-2010 17:13:02 19.6 C 5.74 g/m*3 19.6 C 0 km/h
807 09-05-2010 17:25:02 19.5 C 5.03 g/m*3 19.5 C 0 km/h
808 09-05-2010 17:37:02 19.1 C 5.41 g/m*3 19.1 C 0 km/h
809 09-05-2010 17:49:02 19.4 C 5.17 g/m*3 19.4 C 0 km/h
810 09-05-2010 18:01:02 19.5 C 5.71 g/m*3 19.5 C 0 km/h
811 09-05-2010 18:13:02 18.9 C 5.67 g/m*3 18.9 C 0 km/h
812 09-05-2010 18:25:03 18.7 C 5.76 g/m*3 18.7 C 0 km/h
813 09-05-2010 18:37:02 18.3 C 5.79 g/m*3 18.3 C 0 km/h
814 09-05-2010 18:49:03 18.1 C 6.03 g/m*3 18.1 C 0 km/h
815 09-05-2010 19:01:02 17.6 C 6.6 g/m*3 17.6 C 0 km/h
816 09-05-2010 19:13:03 17 C 6.8 g/m*3 17 C 0 km/h
817 09-05-2010 19:25:02 17 C 6.95 g/m*3 17 C 0 km/h
818 09-05-2010 19:37:02 16.6 C 6.92 g/m*3 16.6 C 0 km/h
819 09-05-2010 19:49:01 16.2 C 6.9 g/m*3 16.2 C 0 km/h
820 09-05-2010 20:01:02 15.8 C 7 g/m*3 15.8 C 0 km/h
821 09-05-2010 20:13:02 15.2 C 6.88 g/m*3 15.2 C 0 km/h
822 09-05-2010 20:25:01 14.8 C 6.84 g/m*3 14.8 C 0 km/h
823 09-05-2010 20:37:01 14.3 C 6.88 g/m*3 14.3 C 0 km/h
824 09-05-2010 20:49:01 14 C 6.75 g/m*3 14 C 0 km/h
825 09-05-2010 21:01:02 13.4 C 6.97 g/m*3 13.4 C 0 km/h
Sensor: Nr:Datum:Temp:Abs-Feuchte:Windchill:Wind:
Aussen-T/F 826 09-05-2010 21:13:02 12.8 C 7.06 g/m*3 12.8 C 0 km/h
827 09-05-2010 21:25:02 12.5 C 7.15 g/m*3 12.5 C 0 km/h
828 09-05-2010 21:37:02 12.1 C 7.08 g/m*3 12.1 C 0 km/h
829 09-05-2010 21:49:02 11.7 C 7.11 g/m*3 11.7 C 0 km/h
830 09-05-2010 22:01:03 11.5 C 7.13 g/m*3 11.5 C 0 km/h
831 09-05-2010 22:13:03 11.3 C 7.14 g/m*3 11.3 C 0 km/h
832 09-05-2010 22:25:02 11.1 C 7.05 g/m*3 11.1 C 0 km/h
833 09-05-2010 22:38:04 10.9 C 6.96 g/m*3 10.9 C 0 km/h
834 09-05-2010 22:50:04 10.8 C 7.02 g/m*3 10.8 C 0 km/h
835 09-05-2010 23:02:04 10.8 C 7.12 g/m*3 10.8 C 0 km/h
836 09-05-2010 23:14:04 10.9 C 7.06 g/m*3 10.9 C 0 km/h
837 09-05-2010 23:26:05 10.7 C 7.07 g/m*3 10.7 C 0 km/h
838 09-05-2010 23:38:05 10.8 C 7.22 g/m*3 10.8 C 0 km/h
839 09-05-2010 23:50:05 10.5 C 7.08 g/m*3 10.5 C 0 km/h

Legende:
   Min
   Max


Maximal/Minimal-Werte vom 03.05.2010 - 09.05.2010

Sensor Min Max Avg
Temp
(Aussen-T/F)
2.5 °C
05-05-2010  06:45:03
19.9 °C
08-05-2010  18:12:02
9.53 °C
Abs-Feuchte
(Aussen-T/F)
2.23 g/m*3
05-05-2010  12:09:02
8.56 g/m*3
03-05-2010  15:55:02
5.92 g/m*3
Windchill
(Aussen-T/F)
2.5 C
05-05-2010  06:45:03
19.9 C
08-05-2010  18:12:02
9.52 C

Die Daten stammen von einer Davis Vantage Pro 2 Wetter-Station und werden unter Linux mit der Software wview2wettercgi und aufbereitet. Alle Angaben erfolgen ohne Gewähr für ihre Vollständigkeit oder Richtigkeit.
Kontakt: Rainer Krienke krienke@uni-koblenz.de . Meine Webseiten an der Uni Koblenz oder privat.
Version: $Revision: 0.78 $